Time;durP1;ratioP1;P1;durP2;ratioP2;P2;SDS_P1;SDS_P2;PMS_P1;PMS_P2;Temp;Humidity;BMP_temperature;BMP_pressure;BME280_temperature;BME280_humidity;BME280_pressure;Samples;Min_cycle;Max_cycle;Signal;HPM_P1;HPM_P2
2023/07/13 00:00:33;;;;;;;1.98;1.45;;;;;;;;;;6292119;28;20047;-82
2023/07/13 00:03:35;;;;;;;3.40;1.55;;;;;;;;;;6307501;28;20736;-81
2023/07/13 00:06:37;;;;;;;6.53;1.55;;;;;;;;;;6309895;28;20113;-81
2023/07/13 00:09:39;;;;;;;3.40;1.67;;;;;;;;;;6295518;28;20520;-80
2023/07/13 00:12:40;;;;;;;2.65;1.60;;;;;;;;;;6297701;28;20063;-81
2023/07/13 00:15:44;;;;;;;1.77;1.30;;;;;;;;;;6309872;28;20047;-81
2023/07/13 00:18:47;;;;;;;1.65;1.30;;;;;;;;;;6311080;28;20055;-81
2023/07/13 00:21:49;;;;;;;3.50;1.17;;;;;;;;;;6297229;28;20048;-81
2023/07/13 00:24:52;;;;;;;2.92;1.20;;;;;;;;;;6296295;28;20055;-80
2023/07/13 00:27:55;;;;;;;1.63;1.20;;;;;;;;;;6307962;28;20048;-80
2023/07/13 00:30:56;;;;;;;;;;;;;;;;;;6294310;28;20068;-81
2023/07/13 00:34:00;;;;;;;2.55;1.15;;;;;;;;;;6296652;28;19927;-81
2023/07/13 00:37:01;;;;;;;4.50;1.15;;;;;;;;;;6280414;28;20040;-80
2023/07/13 00:40:05;;;;;;;2.13;1.00;;;;;;;;;;6277413;28;20117;-80
2023/07/13 00:43:16;;;;;;;4.68;0.80;;;;;;;;;;6309667;28;20174;-80
2023/07/13 00:46:26;;;;;;;4.65;1.17;;;;;;;;;;6306334;28;20059;-80
2023/07/13 00:49:32;;;;;;;2.55;0.82;;;;;;;;;;6301929;28;20421;-81
2023/07/13 00:52:36;;;;;;;2.88;0.90;;;;;;;;;;6274463;28;20051;-81
2023/07/13 00:55:39;;;;;;;1.85;0.95;;;;;;;;;;6311955;28;20051;-82
2023/07/13 00:58:40;;;;;;;2.80;0.73;;;;;;;;;;6291718;28;20644;-81
2023/07/13 01:01:42;;;;;;;2.70;0.80;;;;;;;;;;6287125;28;20047;-82
2023/07/13 01:04:44;;;;;;;2.38;0.70;;;;;;;;;;6293315;28;20165;-82
2023/07/13 01:07:49;;;;;;;4.22;0.70;;;;;;;;;;6295578;28;20052;-81
2023/07/13 01:10:53;;;;;;;0.93;0.60;;;;;;;;;;6295325;28;20059;-82
2023/07/13 01:13:55;;;;;;;2.47;0.80;;;;;;;;;;6294142;28;20106;-82
2023/07/13 01:16:59;;;;;;;2.28;1.00;;;;;;;;;;6293521;28;20036;-81
2023/07/13 01:20:03;;;;;;;1.98;0.80;;;;;;;;;;6316333;28;20044;-82
2023/07/13 01:23:06;;;;;;;2.63;0.70;;;;;;;;;;6278686;28;20143;-83
2023/07/13 01:26:08;;;;;;;2.05;0.90;;;;;;;;;;6275061;28;20054;-82
2023/07/13 01:29:11;;;;;;;1.98;0.90;;;;;;;;;;6294499;28;20051;-82
2023/07/13 01:32:17;;;;;;;3.05;1.10;;;;;;;;;;6299355;28;20040;-82
2023/07/13 01:35:19;;;;;;;2.83;0.70;;;;;;;;;;6312060;28;20036;-82
2023/07/13 01:38:22;;;;;;;4.28;1.10;;;;;;;;;;6309784;28;20040;-83
2023/07/13 01:41:24;;;;;;;1.27;0.77;;;;;;;;;;6315672;28;20094;-82
2023/07/13 01:44:27;;;;;;;3.00;0.80;;;;;;;;;;6296002;28;20092;-82
2023/07/13 01:47:30;;;;;;;3.90;0.80;;;;;;;;;;6295756;28;20052;-82
2023/07/13 01:50:33;;;;;;;;;;;;;;;;;;6297052;28;20516;-82
2023/07/13 01:53:34;;;;;;;2.28;0.98;;;;;;;;;;6293776;28;19920;-82
2023/07/13 01:56:36;;;;;;;2.15;1.10;;;;;;;;;;6309074;28;20047;-82
2023/07/13 01:59:38;;;;;;;3.05;1.27;;;;;;;;;;6277664;28;20044;-82
2023/07/13 02:02:41;;;;;;;2.85;1.10;;;;;;;;;;6295365;28;20036;-81
2023/07/13 02:05:47;;;;;;;2.28;0.95;;;;;;;;;;6315271;28;20107;-82
2023/07/13 02:08:48;;;;;;;2.63;0.97;;;;;;;;;;6293053;28;20051;-82
2023/07/13 02:11:50;;;;;;;3.28;1.02;;;;;;;;;;6275886;28;20062;-81
2023/07/13 02:14:52;;;;;;;1.95;0.93;;;;;;;;;;6308342;28;20106;-81
2023/07/13 02:17:54;;;;;;;2.15;0.90;;;;;;;;;;6278578;28;20052;-82
2023/07/13 02:20:56;;;;;;;2.17;0.93;;;;;;;;;;6288160;28;20044;-82
2023/07/13 02:23:59;;;;;;;1.58;1.02;;;;;;;;;;6292169;28;20066;-82
2023/07/13 02:27:01;;;;;;;2.83;1.13;;;;;;;;;;6293560;28;20055;-82
2023/07/13 02:30:03;;;;;;;1.42;1.02;;;;;;;;;;6308576;28;20097;-82
2023/07/13 02:33:05;;;;;;;2.28;1.17;;;;;;;;;;6309580;28;20044;-82
2023/07/13 02:36:07;;;;;;;2.53;1.20;;;;;;;;;;6307839;28;20059;-82
2023/07/13 02:39:12;;;;;;;2.47;1.40;;;;;;;;;;6298957;28;20043;-80
2023/07/13 02:42:13;;;;;;;2.83;1.27;;;;;;;;;;6296955;28;20048;-80
2023/07/13 02:45:15;;;;;;;3.20;1.30;;;;;;;;;;6295705;28;20036;-80
2023/07/13 02:48:17;;;;;;;1.95;1.17;;;;;;;;;;6288045;28;20073;-80
2023/07/13 02:51:19;;;;;;;3.10;1.10;;;;;;;;;;6293342;28;20036;-80
2023/07/13 02:54:20;;;;;;;1.90;1.10;;;;;;;;;;6292989;28;20048;-80
2023/07/13 02:57:22;;;;;;;3.35;1.13;;;;;;;;;;6278450;28;20413;-80
2023/07/13 03:00:24;;;;;;;7.25;1.30;;;;;;;;;;6286767;28;20051;-81
2023/07/13 03:03:26;;;;;;;3.85;1.20;;;;;;;;;;6290944;28;20401;-81
2023/07/13 03:06:31;;;;;;;1.83;0.90;;;;;;;;;;6288938;28;20036;-80
2023/07/13 03:09:34;;;;;;;4.78;1.27;;;;;;;;;;6284419;28;20040;-82
2023/07/13 03:12:38;;;;;;;3.00;1.23;;;;;;;;;;6289499;28;20177;-81
2023/07/13 03:15:48;;;;;;;3.33;1.40;;;;;;;;;;6280935;28;20071;-80
2023/07/13 03:18:50;;;;;;;4.30;1.27;;;;;;;;;;6276047;28;20047;-82
2023/07/13 03:21:53;;;;;;;5.88;1.20;;;;;;;;;;6283799;28;20051;-80
2023/07/13 03:24:55;;;;;;;5.10;1.60;;;;;;;;;;6303655;28;20051;-81
2023/07/13 03:27:57;;;;;;;3.88;1.20;;;;;;;;;;6308143;28;20047;-81
2023/07/13 03:31:12;;;;;;;1.75;1.08;;;;;;;;;;6278061;28;20040;-80
2023/07/13 03:34:15;;;;;;;2.75;1.50;;;;;;;;;;6308461;28;20044;-80
2023/07/13 03:37:17;;;;;;;4.10;1.63;;;;;;;;;;6290343;28;20055;-81
2023/07/13 03:40:19;;;;;;;3.50;1.60;;;;;;;;;;6306810;28;20078;-82
2023/07/13 03:43:21;;;;;;;3.85;1.20;;;;;;;;;;6293730;28;20067;-81
2023/07/13 03:46:22;;;;;;;6.28;1.65;;;;;;;;;;6290050;28;20036;-81
2023/07/13 03:49:24;;;;;;;3.80;1.30;;;;;;;;;;6295391;28;20046;-81
2023/07/13 03:52:28;;;;;;;;;;;;;;;;;;6295476;28;20489;-81
2023/07/13 03:55:30;;;;;;;4.22;1.50;;;;;;;;;;6293255;28;19920;-80
2023/07/13 03:58:38;;;;;;;4.20;1.53;;;;;;;;;;6295702;28;20042;-80
2023/07/13 04:01:47;;;;;;;4.00;1.50;;;;;;;;;;6296246;28;20695;-79
2023/07/13 04:04:49;;;;;;;4.28;1.60;;;;;;;;;;6312738;28;20055;-82
2023/07/13 04:07:50;;;;;;;3.95;1.60;;;;;;;;;;6312786;28;20044;-82
2023/07/13 04:10:52;;;;;;;5.82;2.33;;;;;;;;;;6293400;28;20062;-82
2023/07/13 04:13:55;;;;;;;5.45;1.90;;;;;;;;;;6296589;28;20622;-80
2023/07/13 04:16:57;;;;;;;3.50;1.50;;;;;;;;;;6290481;28;20047;-80
2023/07/13 04:19:59;;;;;;;9.77;2.33;;;;;;;;;;6294201;28;20103;-80
2023/07/13 04:23:00;;;;;;;4.18;1.30;;;;;;;;;;6294836;28;20040;-82
2023/07/13 04:26:03;;;;;;;4.22;1.70;;;;;;;;;;6306753;28;20051;-82
2023/07/13 04:29:06;;;;;;;2.88;1.80;;;;;;;;;;6295494;28;20040;-80
2023/07/13 04:32:08;;;;;;;2.67;1.50;;;;;;;;;;6312807;28;20161;-79
2023/07/13 04:35:11;;;;;;;3.85;1.77;;;;;;;;;;6297436;28;20036;-80
2023/07/13 04:38:12;;;;;;;4.17;1.70;;;;;;;;;;6295714;28;20409;-80
2023/07/13 04:41:15;;;;;;;3.50;1.80;;;;;;;;;;6297405;28;20044;-82
2023/07/13 04:44:17;;;;;;;2.70;1.53;;;;;;;;;;6291996;28;20067;-83
2023/07/13 04:47:18;;;;;;;4.30;1.55;;;;;;;;;;6292571;28;20438;-82
2023/07/13 04:50:22;;;;;;;3.38;1.50;;;;;;;;;;6295287;28;20441;-83
2023/07/13 04:53:25;;;;;;;5.55;1.35;;;;;;;;;;6310415;28;20071;-82
2023/07/13 04:56:27;;;;;;;5.35;1.60;;;;;;;;;;6291035;28;20099;-80
2023/07/13 04:59:28;;;;;;;3.58;1.70;;;;;;;;;;6303486;28;20041;-80
2023/07/13 05:02:31;;;;;;;7.60;3.05;;;;;;;;;;6293033;28;20048;-80
2023/07/13 05:05:33;;;;;;;6.90;2.80;;;;;;;;;;6291676;28;20064;-79
2023/07/13 05:08:35;;;;;;;9.80;4.18;;;;;;;;;;6274623;28;20047;-80
2023/07/13 05:11:37;;;;;;;8.20;4.30;;;;;;;;;;6310691;28;20115;-80
2023/07/13 05:14:39;;;;;;;9.15;2.88;;;;;;;;;;6294231;28;20325;-79
2023/07/13 05:17:41;;;;;;;7.38;3.55;;;;;;;;;;6280979;28;20185;-80
2023/07/13 05:20:43;;;;;;;10.40;5.10;;;;;;;;;;6300376;28;20780;-79
2023/07/13 05:23:44;;;;;;;11.75;5.13;;;;;;;;;;6288091;28;20043;-79
2023/07/13 05:26:46;;;;;;;8.95;3.88;;;;;;;;;;6293202;28;20070;-80
2023/07/13 05:29:48;;;;;;;6.82;3.30;;;;;;;;;;6296411;28;20059;-81
2023/07/13 05:32:50;;;;;;;5.72;2.95;;;;;;;;;;6309740;28;20342;-80
2023/07/13 05:35:52;;;;;;;8.02;2.92;;;;;;;;;;6291493;28;20142;-79
2023/07/13 05:38:54;;;;;;;5.70;2.20;;;;;;;;;;6307859;28;20056;-80
2023/07/13 05:41:55;;;;;;;7.43;2.50;;;;;;;;;;6292553;28;20040;-80
2023/07/13 05:44:57;;;;;;;6.10;2.00;;;;;;;;;;6293571;28;20127;-79
2023/07/13 05:47:59;;;;;;;6.60;1.90;;;;;;;;;;6291164;28;20036;-80
2023/07/13 05:51:02;;;;;;;5.35;2.05;;;;;;;;;;6312313;28;20145;-82
2023/07/13 05:54:04;;;;;;;;;;;;;;;;;;6293467;28;20048;-81
2023/07/13 05:57:05;;;;;;;5.90;1.98;;;;;;;;;;6312959;28;19920;-80
2023/07/13 06:00:08;;;;;;;6.85;2.00;;;;;;;;;;6313415;28;20051;-79
2023/07/13 06:03:13;;;;;;;5.80;1.70;;;;;;;;;;6304726;28;20044;-78
2023/07/13 06:06:15;;;;;;;4.05;1.70;;;;;;;;;;6271508;28;20044;-78
2023/07/13 06:09:17;;;;;;;3.85;1.45;;;;;;;;;;6285319;28;20044;-77
2023/07/13 06:12:19;;;;;;;3.60;1.60;;;;;;;;;;6306608;28;20040;-79
2023/07/13 06:15:21;;;;;;;4.88;1.70;;;;;;;;;;6305383;28;20405;-79
2023/07/13 06:18:22;;;;;;;6.30;1.50;;;;;;;;;;6307891;28;20517;-79
2023/07/13 06:21:24;;;;;;;6.78;1.20;;;;;;;;;;6306088;28;20051;-76
2023/07/13 06:24:26;;;;;;;3.35;1.10;;;;;;;;;;6304571;28;20049;-76
2023/07/13 06:27:28;;;;;;;5.23;1.43;;;;;;;;;;6305167;28;20039;-77
2023/07/13 06:30:32;;;;;;;3.22;0.93;;;;;;;;;;6300458;28;20042;-78
2023/07/13 06:33:34;;;;;;;2.97;0.82;;;;;;;;;;6302532;28;20502;-78
2023/07/13 06:36:36;;;;;;;1.83;0.77;;;;;;;;;;6303908;28;20182;-78
2023/07/13 06:39:38;;;;;;;3.25;0.95;;;;;;;;;;6300251;28;20155;-78
2023/07/13 06:42:39;;;;;;;2.53;0.80;;;;;;;;;;6302681;28;20044;-77
2023/07/13 06:45:45;;;;;;;1.65;0.93;;;;;;;;;;6298103;28;20522;-78
2023/07/13 06:48:47;;;;;;;2.13;0.90;;;;;;;;;;6297441;28;20076;-78
2023/07/13 06:51:49;;;;;;;2.58;0.80;;;;;;;;;;6299436;28;20058;-76
2023/07/13 06:54:51;;;;;;;3.53;0.65;;;;;;;;;;6286353;28;20254;-82
2023/07/13 06:57:53;;;;;;;2.47;0.60;;;;;;;;;;6284413;28;20510;-80
2023/07/13 07:00:54;;;;;;;3.07;0.60;;;;;;;;;;6309777;28;20067;-81
2023/07/13 07:03:56;;;;;;;1.95;0.70;;;;;;;;;;6308574;28;20070;-81
2023/07/13 07:06:58;;;;;;;4.35;0.80;;;;;;;;;;6284449;28;20118;-81
2023/07/13 07:10:00;;;;;;;1.80;0.80;;;;;;;;;;6289424;28;20044;-81
2023/07/13 07:13:03;;;;;;;4.05;0.80;;;;;;;;;;6275723;28;20501;-80
2023/07/13 07:16:05;;;;;;;2.72;0.60;;;;;;;;;;6290156;28;20068;-80
2023/07/13 07:19:07;;;;;;;1.40;0.73;;;;;;;;;;6308639;28;20057;-80
2023/07/13 07:22:09;;;;;;;1.60;0.70;;;;;;;;;;6306111;28;20043;-80
2023/07/13 07:25:10;;;;;;;3.45;0.82;;;;;;;;;;6304175;28;20050;-80
2023/07/13 07:28:17;;;;;;;3.65;0.98;;;;;;;;;;6305934;28;20123;-80
2023/07/13 07:31:22;;;;;;;0.88;0.60;;;;;;;;;;6301901;28;20052;-77
2023/07/13 07:34:27;;;;;;;4.30;1.05;;;;;;;;;;6306738;28;20039;-77
2023/07/13 07:37:29;;;;;;;1.27;0.60;;;;;;;;;;6304011;28;20099;-76
2023/07/13 07:40:40;;;;;;;5.25;0.80;;;;;;;;;;6305464;28;20040;-77
2023/07/13 07:43:44;;;;;;;2.05;0.60;;;;;;;;;;6299197;28;20044;-77
2023/07/13 07:46:46;;;;;;;1.13;0.80;;;;;;;;;;6284816;28;20040;-77
2023/07/13 07:49:48;;;;;;;1.92;0.50;;;;;;;;;;6309641;28;20044;-76
2023/07/13 07:52:50;;;;;;;3.65;0.80;;;;;;;;;;6304823;28;20052;-77
2023/07/13 07:55:52;;;;;;;1.08;0.60;;;;;;;;;;6285989;28;20109;-76
2023/07/13 07:58:57;;;;;;;0.73;0.47;;;;;;;;;;6291476;28;20044;-76
2023/07/13 08:02:02;;;;;;;1.17;0.63;;;;;;;;;;6307482;28;20040;-78
2023/07/13 08:05:08;;;;;;;1.63;0.52;;;;;;;;;;6303290;28;20054;-78
2023/07/13 08:08:12;;;;;;;2.90;1.20;;;;;;;;;;6305029;28;20051;-80
2023/07/13 08:11:14;;;;;;;4.40;0.82;;;;;;;;;;6308206;28;20425;-82
2023/07/13 08:14:19;;;;;;;0.93;0.70;;;;;;;;;;6295301;28;20040;-82
2023/07/13 08:17:21;;;;;;;3.45;0.70;;;;;;;;;;6308980;28;20051;-82
2023/07/13 08:20:23;;;;;;;2.05;0.75;;;;;;;;;;6308854;28;20032;-78
2023/07/13 08:23:25;;;;;;;1.90;0.70;;;;;;;;;;6303321;28;20052;-76
2023/07/13 08:26:27;;;;;;;;;;;;;;;;;;6303487;28;20047;-77
2023/07/13 08:29:31;;;;;;;3.85;0.70;;;;;;;;;;6302519;28;20393;-77
2023/07/13 08:32:33;;;;;;;1.25;0.60;;;;;;;;;;6301180;28;20418;-77
2023/07/13 08:35:35;;;;;;;1.23;0.40;;;;;;;;;;6304549;28;20048;-79
2023/07/13 08:38:37;;;;;;;0.93;0.30;;;;;;;;;;6286071;28;20036;-77
2023/07/13 08:41:39;;;;;;;2.42;0.75;;;;;;;;;;6286721;28;20044;-78
2023/07/13 08:44:55;;;;;;;2.53;0.80;;;;;;;;;;6304490;28;20056;-78
2023/07/13 08:48:03;;;;;;;0.75;0.40;;;;;;;;;;6285088;28;20445;-78
2023/07/13 08:51:28;;;;;;;0.85;0.55;;;;;;;;;;6307283;28;20158;-77
2023/07/13 08:54:41;;;;;;;1.10;0.50;;;;;;;;;;6287503;28;20036;-77
2023/07/13 08:57:44;;;;;;;;;;;;;;;;;;6301704;28;20039;-80
2023/07/13 09:01:03;;;;;;;0.85;0.50;;;;;;;;;;6301038;28;19997;-79
2023/07/13 09:04:22;;;;;;;2.03;0.70;;;;;;;;;;6291581;28;20121;-77
2023/07/13 09:07:55;;;;;;;1.15;0.50;;;;;;;;;;6308954;28;20039;-78
2023/07/13 09:11:28;;;;;;;0.85;0.60;;;;;;;;;;6307518;28;20048;-78
2023/07/13 09:14:41;;;;;;;2.00;0.60;;;;;;;;;;6285882;28;20048;-79
2023/07/13 09:17:50;;;;;;;1.83;0.73;;;;;;;;;;6317652;28;20520;-77
2023/07/13 09:21:05;;;;;;;2.13;0.57;;;;;;;;;;6312363;28;20117;-80
2023/07/13 09:24:32;;;;;;;0.50;0.40;;;;;;;;;;6305360;28;20072;-78
2023/07/13 09:27:39;;;;;;;1.95;0.77;;;;;;;;;;6306311;28;20048;-80
2023/07/13 09:30:51;;;;;;;1.98;0.50;;;;;;;;;;6305922;28;20527;-77
2023/07/13 09:33:53;;;;;;;1.73;0.60;;;;;;;;;;6309273;28;20451;-79
2023/07/13 09:36:55;;;;;;;1.17;0.50;;;;;;;;;;6305318;28;20042;-79
2023/07/13 09:39:59;;;;;;;1.60;0.93;;;;;;;;;;6307361;28;20127;-80
2023/07/13 09:43:03;;;;;;;3.10;0.60;;;;;;;;;;6301886;28;20044;-79
2023/07/13 09:46:21;;;;;;;1.00;0.57;;;;;;;;;;6300385;28;20044;-79
2023/07/13 09:49:26;;;;;;;0.88;0.50;;;;;;;;;;6301788;28;20040;-78
2023/07/13 09:52:38;;;;;;;1.70;0.60;;;;;;;;;;6301438;28;20048;-80
2023/07/13 09:55:43;;;;;;;5.95;3.42;;;;;;;;;;6300158;28;20048;-81
2023/07/13 09:58:45;;;;;;;2.17;1.10;;;;;;;;;;6306066;28;20036;-83
2023/07/13 10:01:48;;;;;;;2.93;0.90;;;;;;;;;;6309247;28;20048;-83
2023/07/13 10:05:03;;;;;;;3.67;2.22;;;;;;;;;;6307994;28;20063;-82
2023/07/13 10:08:07;;;;;;;1.15;0.65;;;;;;;;;;6308342;28;20089;-84
2023/07/13 10:11:12;;;;;;;2.20;1.08;;;;;;;;;;6307103;28;20040;-82
2023/07/13 10:14:23;;;;;;;3.40;2.38;;;;;;;;;;6312621;28;20048;-83
2023/07/13 10:17:31;;;;;;;1.75;0.80;;;;;;;;;;6313046;28;20174;-82
2023/07/13 10:20:32;;;;;;;4.45;3.00;;;;;;;;;;6288147;28;20044;-80
2023/07/13 10:23:34;;;;;;;1.80;1.50;;;;;;;;;;6324648;28;20054;-80
2023/07/13 10:26:42;;;;;;;1.27;0.90;;;;;;;;;;6322415;28;20040;-82
2023/07/13 10:29:47;;;;;;;1.60;0.90;;;;;;;;;;6314467;28;20806;-84
2023/07/13 10:32:50;;;;;;;2.15;0.98;;;;;;;;;;6313606;28;20103;-81
2023/07/13 10:35:58;;;;;;;1.55;0.95;;;;;;;;;;6312043;28;20048;-82
2023/07/13 10:39:04;;;;;;;1.10;0.40;;;;;;;;;;6308159;28;20062;-83
2023/07/13 10:42:11;;;;;;;1.42;0.70;;;;;;;;;;6313026;28;20173;-82
2023/07/13 10:45:19;;;;;;;3.58;0.73;;;;;;;;;;6290839;28;20447;-83
2023/07/13 10:48:23;;;;;;;1.10;0.77;;;;;;;;;;6292837;28;20036;-82
2023/07/13 10:51:27;;;;;;;1.67;0.70;;;;;;;;;;6308660;28;20498;-82
2023/07/13 10:54:29;;;;;;;1.90;0.75;;;;;;;;;;6310625;28;20052;-80
2023/07/13 10:57:30;;;;;;;1.33;0.70;;;;;;;;;;6292879;28;20044;-81
2023/07/13 11:00:42;;;;;;;0.97;0.50;;;;;;;;;;6281399;28;20041;-81
2023/07/13 11:03:53;;;;;;;2.00;0.60;;;;;;;;;;6292870;28;20040;-83
2023/07/13 11:07:10;;;;;;;1.80;0.60;;;;;;;;;;6312592;28;20217;-82
2023/07/13 11:10:52;;;;;;;0.93;0.70;;;;;;;;;;6313351;28;20073;-83
2023/07/13 11:13:53;;;;;;;2.45;0.52;;;;;;;;;;6293846;28;20059;-82
2023/07/13 11:16:56;;;;;;;1.20;0.60;;;;;;;;;;6311845;28;20044;-81
2023/07/13 11:20:13;;;;;;;1.92;0.55;;;;;;;;;;6309078;28;20047;-80
2023/07/13 11:23:18;;;;;;;0.88;0.68;;;;;;;;;;6303080;28;20040;-80
2023/07/13 11:26:41;;;;;;;1.15;0.47;;;;;;;;;;6307930;28;20044;-80
2023/07/13 11:29:43;;;;;;;2.30;0.50;;;;;;;;;;6304528;28;20044;-80
2023/07/13 11:32:50;;;;;;;1.92;0.50;;;;;;;;;;6307479;28;20417;-80
2023/07/13 11:35:51;;;;;;;1.05;0.45;;;;;;;;;;6304591;28;20051;-80
2023/07/13 11:39:35;;;;;;;0.87;0.60;;;;;;;;;;6287468;28;20048;-79
2023/07/13 11:42:36;;;;;;;1.65;0.60;;;;;;;;;;6265901;28;20480;-80
2023/07/13 11:45:38;;;;;;;1.03;0.57;;;;;;;;;;6308194;28;20059;-80
2023/07/13 11:48:50;;;;;;;0.75;0.40;;;;;;;;;;6309151;28;20044;-79
2023/07/13 11:51:56;;;;;;;2.38;0.52;;;;;;;;;;6287429;28;20052;-80
2023/07/13 11:55:01;;;;;;;1.65;0.73;;;;;;;;;;6305073;28;20047;-80
2023/07/13 11:58:03;;;;;;;2.42;0.73;;;;;;;;;;6288856;28;20044;-80
2023/07/13 12:01:05;;;;;;;1.53;0.70;;;;;;;;;;6309286;28;20051;-81
2023/07/13 12:04:21;;;;;;;1.77;0.75;;;;;;;;;;6306612;28;20044;-81
2023/07/13 12:07:23;;;;;;;1.02;0.60;;;;;;;;;;6310533;28;20135;-83
2023/07/13 12:10:32;;;;;;;2.47;0.50;;;;;;;;;;6311769;28;20044;-82
2023/07/13 12:13:37;;;;;;;0.93;0.60;;;;;;;;;;6315352;28;20454;-81
2023/07/13 12:16:39;;;;;;;0.95;0.85;;;;;;;;;;6314257;28;20123;-82
2023/07/13 12:19:41;;;;;;;1.33;0.65;;;;;;;;;;6314468;28;20166;-80
2023/07/13 12:22:47;;;;;;;1.10;0.70;;;;;;;;;;6311795;28;20073;-81
2023/07/13 12:25:49;;;;;;;2.05;0.80;;;;;;;;;;6311016;28;20055;-81
2023/07/13 12:28:56;;;;;;;1.37;0.70;;;;;;;;;;6314632;28;20044;-82
2023/07/13 12:31:59;;;;;;;1.70;0.80;;;;;;;;;;6288274;28;20451;-82
2023/07/13 12:35:30;;;;;;;1.73;0.80;;;;;;;;;;6294604;28;20059;-81
2023/07/13 12:38:32;;;;;;;2.42;0.70;;;;;;;;;;6308266;28;20037;-81
2023/07/13 12:41:34;;;;;;;;;;;;;;;;;;6314119;28;20111;-81
2023/07/13 12:44:41;;;;;;;1.58;0.80;;;;;;;;;;6311519;28;19920;-81
2023/07/13 12:47:47;;;;;;;1.10;0.55;;;;;;;;;;6295232;28;20174;-82
2023/07/13 12:50:50;;;;;;;1.40;0.70;;;;;;;;;;6312918;28;20139;-82
2023/07/13 12:54:11;;;;;;;1.85;0.73;;;;;;;;;;6311657;28;20051;-81
2023/07/13 12:57:16;;;;;;;1.90;0.75;;;;;;;;;;6321441;28;20051;-81
2023/07/13 13:00:34;;;;;;;1.95;0.80;;;;;;;;;;6328624;28;20095;-80
2023/07/13 13:03:41;;;;;;;1.70;0.70;;;;;;;;;;6310901;28;20437;-79
2023/07/13 13:06:43;;;;;;;2.60;0.90;;;;;;;;;;6312988;28;20036;-80
2023/07/13 13:09:45;;;;;;;1.40;0.70;;;;;;;;;;6308119;28;20055;-80
2023/07/13 13:12:47;;;;;;;1.17;0.90;;;;;;;;;;6292884;28;20044;-78
2023/07/13 13:15:49;;;;;;;1.80;0.80;;;;;;;;;;6308119;28;20048;-80
2023/07/13 13:18:53;;;;;;;0.93;0.63;;;;;;;;;;6293108;28;20050;-81
2023/07/13 13:21:57;;;;;;;2.58;1.00;;;;;;;;;;6307329;28;20512;-78
2023/07/13 13:25:00;;;;;;;1.30;0.70;;;;;;;;;;6307188;28;20048;-78
2023/07/13 13:28:01;;;;;;;1.65;0.80;;;;;;;;;;6312275;28;20067;-79
2023/07/13 13:31:03;;;;;;;1.80;0.87;;;;;;;;;;6292424;28;20122;-78
2023/07/13 13:34:09;;;;;;;1.93;0.80;;;;;;;;;;6311211;28;20048;-79
2023/07/13 13:37:20;;;;;;;2.08;1.00;;;;;;;;;;6309590;28;20050;-79
2023/07/13 13:40:22;;;;;;;1.70;0.80;;;;;;;;;;6309974;28;20119;-79
2023/07/13 13:43:26;;;;;;;2.70;0.70;;;;;;;;;;6307766;28;20151;-81
2023/07/13 13:46:30;;;;;;;4.13;1.08;;;;;;;;;;6309911;28;20051;-79
2023/07/13 13:49:32;;;;;;;3.00;1.13;;;;;;;;;;6292218;28;21102;-79
2023/07/13 13:52:33;;;;;;;2.07;0.83;;;;;;;;;;6289891;28;20047;-80
2023/07/13 13:55:35;;;;;;;0.90;0.68;;;;;;;;;;6306525;28;20045;-78
2023/07/13 13:58:37;;;;;;;3.40;1.00;;;;;;;;;;6291246;28;20036;-79
2023/07/13 14:01:41;;;;;;;1.38;0.60;;;;;;;;;;6306203;28;20054;-80
2023/07/13 14:04:44;;;;;;;3.55;1.13;;;;;;;;;;6305063;28;20117;-79
2023/07/13 14:07:46;;;;;;;1.92;0.80;;;;;;;;;;6307258;28;20052;-79
2023/07/13 14:10:54;;;;;;;1.63;0.80;;;;;;;;;;6309299;28;20052;-78
2023/07/13 14:13:58;;;;;;;1.15;0.77;;;;;;;;;;6308719;28;20540;-81
2023/07/13 14:17:00;;;;;;;3.95;0.85;;;;;;;;;;6284009;28;20060;-81
2023/07/13 14:20:04;;;;;;;1.77;0.80;;;;;;;;;;6298141;28;20047;-81
2023/07/13 14:23:06;;;;;;;2.28;0.70;;;;;;;;;;6287420;28;20177;-81
2023/07/13 14:26:13;;;;;;;1.00;0.80;;;;;;;;;;6302861;28;20065;-80
2023/07/13 14:29:18;;;;;;;3.15;1.10;;;;;;;;;;6308756;28;20044;-82
2023/07/13 14:32:25;;;;;;;2.55;0.98;;;;;;;;;;6325186;28;20123;-82
2023/07/13 14:35:27;;;;;;;2.53;0.87;;;;;;;;;;6310664;28;20523;-80
2023/07/13 14:38:29;;;;;;;2.30;1.00;;;;;;;;;;6307534;28;20454;-79
2023/07/13 14:41:31;;;;;;;1.97;0.80;;;;;;;;;;6309592;28;20040;-79
2023/07/13 14:44:32;;;;;;;2.63;0.95;;;;;;;;;;6307528;28;21284;-80
2023/07/13 14:47:34;;;;;;;1.38;0.70;;;;;;;;;;6307640;28;20048;-80
2023/07/13 14:50:37;;;;;;;2.60;0.80;;;;;;;;;;6307188;28;20040;-80
2023/07/13 14:53:39;;;;;;;1.70;0.70;;;;;;;;;;6306122;28;20448;-79
2023/07/13 14:56:41;;;;;;;3.47;0.80;;;;;;;;;;6284965;28;20051;-79
2023/07/13 14:59:46;;;;;;;1.90;0.80;;;;;;;;;;6305525;28;20123;-79
2023/07/13 15:02:54;;;;;;;2.88;0.65;;;;;;;;;;6302867;28;20071;-78
2023/07/13 15:05:56;;;;;;;2.22;0.90;;;;;;;;;;6299902;28;20059;-80
2023/07/13 15:08:57;;;;;;;1.33;0.97;;;;;;;;;;6303082;28;20047;-79
2023/07/13 15:11:59;;;;;;;1.15;0.75;;;;;;;;;;6269104;28;20044;-79
2023/07/13 15:15:01;;;;;;;2.17;0.75;;;;;;;;;;6300108;28;20044;-78
2023/07/13 15:18:03;;;;;;;0.80;0.80;;;;;;;;;;6284589;28;20088;-78
2023/07/13 15:21:07;;;;;;;1.67;0.90;;;;;;;;;;6291657;28;20052;-80
2023/07/13 15:24:10;;;;;;;2.08;0.80;;;;;;;;;;6306836;28;20316;-79
2023/07/13 15:27:12;;;;;;;2.67;0.73;;;;;;;;;;6291720;28;20048;-80
2023/07/13 15:30:14;;;;;;;1.65;0.75;;;;;;;;;;6312954;28;20053;-80
2023/07/13 15:33:27;;;;;;;1.27;0.60;;;;;;;;;;6310137;28;20054;-81
2023/07/13 15:36:29;;;;;;;2.65;1.02;;;;;;;;;;6310500;28;20040;-81
2023/07/13 15:39:35;;;;;;;1.38;0.75;;;;;;;;;;6309126;28;20043;-81
2023/07/13 15:42:38;;;;;;;1.58;0.90;;;;;;;;;;6306285;28;20055;-81
2023/07/13 15:45:43;;;;;;;1.65;0.73;;;;;;;;;;6290075;28;20048;-81
2023/07/13 15:48:45;;;;;;;1.02;0.70;;;;;;;;;;6316417;28;20047;-81
2023/07/13 15:51:48;;;;;;;;;;;;;;;;;;6314486;28;20036;-81
2023/07/13 15:54:50;;;;;;;1.92;0.70;;;;;;;;;;6312079;28;19927;-80
2023/07/13 15:57:52;;;;;;;3.83;0.95;;;;;;;;;;6312448;28;20123;-81
2023/07/13 16:00:54;;;;;;;3.20;1.00;;;;;;;;;;6278678;28;20066;-81
2023/07/13 16:03:56;;;;;;;2.05;0.80;;;;;;;;;;6314793;28;20056;-80
2023/07/13 16:06:57;;;;;;;1.05;0.70;;;;;;;;;;6313160;28;20071;-80
2023/07/13 16:09:59;;;;;;;2.70;1.00;;;;;;;;;;6312690;28;20040;-81
2023/07/13 16:13:02;;;;;;;0.98;0.65;;;;;;;;;;6308816;28;20484;-81
2023/07/13 16:16:09;;;;;;;;;;;;;;;;;;6310520;28;20042;-81
2023/07/13 16:19:11;;;;;;;1.13;0.68;;;;;;;;;;6310733;28;19939;-81
2023/07/13 16:22:16;;;;;;;1.23;0.80;;;;;;;;;;6313068;28;20044;-81
2023/07/13 16:25:25;;;;;;;1.63;0.70;;;;;;;;;;6302629;28;20733;-81
2023/07/13 16:28:29;;;;;;;1.30;0.68;;;;;;;;;;6312000;28;20040;-82
2023/07/13 16:31:34;;;;;;;1.10;0.80;;;;;;;;;;6311666;28;20052;-83
2023/07/13 16:34:38;;;;;;;2.35;1.00;;;;;;;;;;6313972;28;20047;-82
2023/07/13 16:37:40;;;;;;;1.55;0.75;;;;;;;;;;6310808;28;20063;-81
2023/07/13 16:41:01;;;;;;;1.30;0.70;;;;;;;;;;6311099;28;20052;-81
2023/07/13 16:44:11;;;;;;;3.08;0.77;;;;;;;;;;6295459;28;20063;-82
2023/07/13 16:47:15;;;;;;;3.25;0.90;;;;;;;;;;6293612;28;20044;-83
2023/07/13 16:50:21;;;;;;;3.28;1.20;;;;;;;;;;6312562;28;20059;-83
2023/07/13 16:53:26;;;;;;;1.83;0.88;;;;;;;;;;6312620;28;20044;-82
2023/07/13 16:56:27;;;;;;;0.80;0.70;;;;;;;;;;6310923;28;20047;-82
2023/07/13 16:59:32;;;;;;;2.27;0.87;;;;;;;;;;6278833;28;20378;-81
2023/07/13 17:02:36;;;;;;;2.55;0.73;;;;;;;;;;6312119;28;20453;-81
2023/07/13 17:05:45;;;;;;;1.15;0.80;;;;;;;;;;6308363;28;20394;-81
2023/07/13 17:08:47;;;;;;;1.50;0.80;;;;;;;;;;6304308;28;20040;-80
2023/07/13 17:11:50;;;;;;;3.20;0.95;;;;;;;;;;6289093;28;20055;-80
2023/07/13 17:14:52;;;;;;;1.85;0.70;;;;;;;;;;6308556;28;20574;-81
2023/07/13 17:18:07;;;;;;;1.73;0.82;;;;;;;;;;6284355;28;20048;-80
2023/07/13 17:21:15;;;;;;;2.10;0.90;;;;;;;;;;6307591;28;20044;-80
2023/07/13 17:24:20;;;;;;;1.23;0.80;;;;;;;;;;6306956;28;20135;-80
2023/07/13 17:27:22;;;;;;;1.60;0.82;;;;;;;;;;6287711;28;20044;-77
2023/07/13 17:30:24;;;;;;;2.40;0.70;;;;;;;;;;6306254;28;20097;-78
2023/07/13 17:33:28;;;;;;;2.17;0.90;;;;;;;;;;6305009;28;20040;-81
2023/07/13 17:36:29;;;;;;;1.60;0.80;;;;;;;;;;6305750;28;20450;-81
2023/07/13 17:39:31;;;;;;;1.37;0.90;;;;;;;;;;6304779;28;20506;-80
2023/07/13 17:42:33;;;;;;;2.05;1.13;;;;;;;;;;6303442;28;20112;-79
2023/07/13 17:45:36;;;;;;;2.80;0.90;;;;;;;;;;6304819;28;20441;-80
2023/07/13 17:48:39;;;;;;;2.33;0.90;;;;;;;;;;6308892;28;20509;-80
2023/07/13 17:51:41;;;;;;;2.35;0.80;;;;;;;;;;6307470;28;20048;-80
2023/07/13 17:54:42;;;;;;;1.47;0.80;;;;;;;;;;6287716;28;20041;-82
2023/07/13 17:57:48;;;;;;;2.03;1.02;;;;;;;;;;6310191;28;20052;-80
2023/07/13 18:00:50;;;;;;;1.75;0.80;;;;;;;;;;6312697;28;20062;-81
2023/07/13 18:03:57;;;;;;;1.80;0.90;;;;;;;;;;6309530;28;20117;-80
2023/07/13 18:07:08;;;;;;;2.00;0.77;;;;;;;;;;6307218;28;20469;-79
2023/07/13 18:10:15;;;;;;;1.98;0.88;;;;;;;;;;6309077;28;20444;-79
2023/07/13 18:13:18;;;;;;;1.58;0.80;;;;;;;;;;6308661;28;20047;-80
2023/07/13 18:16:24;;;;;;;1.20;1.10;;;;;;;;;;6309138;28;20043;-80
2023/07/13 18:19:33;;;;;;;2.92;1.00;;;;;;;;;;6309158;28;20052;-81
2023/07/13 18:22:36;;;;;;;2.63;0.80;;;;;;;;;;6306795;28;20056;-80
2023/07/13 18:25:37;;;;;;;2.67;0.77;;;;;;;;;;6308503;28;20046;-80
2023/07/13 18:28:41;;;;;;;2.20;0.85;;;;;;;;;;6307177;28;20040;-79